sensor_id;sensor_type;location;lat;lon;timestamp;temperature;humidity
7325;DHT22;3703;48.016;7.802;2023-08-17T00:01:59;24.90;1.00
7325;DHT22;3703;48.016;7.802;2023-08-17T00:04:44;24.80;1.00
7325;DHT22;3703;48.016;7.802;2023-08-17T00:07:30;24.90;1.00
7325;DHT22;3703;48.016;7.802;2023-08-17T00:10:16;24.90;1.00
7325;DHT22;3703;48.016;7.802;2023-08-17T00:13:02;24.90;1.00
7325;DHT22;3703;48.016;7.802;2023-08-17T00:15:50;24.90;1.00
7325;DHT22;3703;48.016;7.802;2023-08-17T00:18:36;24.90;1.00
7325;DHT22;3703;48.016;7.802;2023-08-17T00:21:21;24.80;1.00
7325;DHT22;3703;48.016;7.802;2023-08-17T00:24:07;24.70;1.00
7325;DHT22;3703;48.016;7.802;2023-08-17T00:26:53;24.90;1.00
7325;DHT22;3703;48.016;7.802;2023-08-17T00:29:38;24.80;1.00
7325;DHT22;3703;48.016;7.802;2023-08-17T00:32:25;24.80;1.00
7325;DHT22;3703;48.016;7.802;2023-08-17T00:35:11;24.80;1.00
7325;DHT22;3703;48.016;7.802;2023-08-17T00:37:57;24.60;1.00
7325;DHT22;3703;48.016;7.802;2023-08-17T00:40:43;24.60;1.00
7325;DHT22;3703;48.016;7.802;2023-08-17T00:43:29;24.60;1.00
7325;DHT22;3703;48.016;7.802;2023-08-17T00:46:14;24.50;1.00
7325;DHT22;3703;48.016;7.802;2023-08-17T00:49:02;24.70;1.00
7325;DHT22;3703;48.016;7.802;2023-08-17T00:51:48;24.70;1.00
7325;DHT22;3703;48.016;7.802;2023-08-17T00:54:34;24.60;1.00
7325;DHT22;3703;48.016;7.802;2023-08-17T00:57:21;24.60;1.00
7325;DHT22;3703;48.016;7.802;2023-08-17T01:00:09;24.60;1.00
7325;DHT22;3703;48.016;7.802;2023-08-17T01:02:57;24.60;1.00
7325;DHT22;3703;48.016;7.802;2023-08-17T01:05:44;24.50;1.00
7325;DHT22;3703;48.016;7.802;2023-08-17T01:08:30;24.40;1.00
7325;DHT22;3703;48.016;7.802;2023-08-17T01:11:22;24.40;1.00
7325;DHT22;3703;48.016;7.802;2023-08-17T01:14:18;24.30;1.00
7325;DHT22;3703;48.016;7.802;2023-08-17T01:17:12;24.40;1.00
7325;DHT22;3703;48.016;7.802;2023-08-17T01:20:02;24.40;1.00
7325;DHT22;3703;48.016;7.802;2023-08-17T01:22:52;24.30;1.00
7325;DHT22;3703;48.016;7.802;2023-08-17T01:25:43;24.30;1.00
7325;DHT22;3703;48.016;7.802;2023-08-17T01:28:29;24.20;1.00
7325;DHT22;3703;48.016;7.802;2023-08-17T01:31:19;24.20;1.00
7325;DHT22;3703;48.016;7.802;2023-08-17T01:34:12;24.20;1.00
7325;DHT22;3703;48.016;7.802;2023-08-17T01:37:06;24.10;1.00
7325;DHT22;3703;48.016;7.802;2023-08-17T01:39:55;24.00;1.00
7325;DHT22;3703;48.016;7.802;2023-08-17T01:42:43;24.00;1.00
7325;DHT22;3703;48.016;7.802;2023-08-17T01:45:30;24.00;1.00
7325;DHT22;3703;48.016;7.802;2023-08-17T01:48:15;24.00;1.00
7325;DHT22;3703;48.016;7.802;2023-08-17T01:51:01;24.00;1.00
7325;DHT22;3703;48.016;7.802;2023-08-17T01:53:47;23.90;1.00
7325;DHT22;3703;48.016;7.802;2023-08-17T01:56:33;24.00;1.00
7325;DHT22;3703;48.016;7.802;2023-08-17T01:59:20;23.80;1.00
7325;DHT22;3703;48.016;7.802;2023-08-17T02:02:06;23.90;1.00
7325;DHT22;3703;48.016;7.802;2023-08-17T02:04:52;23.60;1.00
7325;DHT22;3703;48.016;7.802;2023-08-17T02:07:38;23.80;1.00
7325;DHT22;3703;48.016;7.802;2023-08-17T02:10:24;23.90;1.00
7325;DHT22;3703;48.016;7.802;2023-08-17T02:13:09;23.90;1.00
7325;DHT22;3703;48.016;7.802;2023-08-17T02:15:58;23.90;1.00
7325;DHT22;3703;48.016;7.802;2023-08-17T02:18:43;23.80;1.00
7325;DHT22;3703;48.016;7.802;2023-08-17T02:21:29;23.90;1.00
7325;DHT22;3703;48.016;7.802;2023-08-17T02:24:15;24.00;1.00
7325;DHT22;3703;48.016;7.802;2023-08-17T02:27:01;23.90;1.00
7325;DHT22;3703;48.016;7.802;2023-08-17T02:29:47;23.80;1.00
7325;DHT22;3703;48.016;7.802;2023-08-17T02:32:34;23.80;1.00
7325;DHT22;3703;48.016;7.802;2023-08-17T02:35:19;23.80;1.00
7325;DHT22;3703;48.016;7.802;2023-08-17T02:38:05;23.90;1.00
7325;DHT22;3703;48.016;7.802;2023-08-17T02:40:51;24.00;1.00
7325;DHT22;3703;48.016;7.802;2023-08-17T02:43:36;24.00;1.00
7325;DHT22;3703;48.016;7.802;2023-08-17T02:46:22;24.10;1.00
7325;DHT22;3703;48.016;7.802;2023-08-17T02:49:09;24.10;1.00
7325;DHT22;3703;48.016;7.802;2023-08-17T02:51:55;24.10;1.00
7325;DHT22;3703;48.016;7.802;2023-08-17T02:54:41;24.10;1.00
7325;DHT22;3703;48.016;7.802;2023-08-17T02:57:26;24.10;1.00
7325;DHT22;3703;48.016;7.802;2023-08-17T03:00:13;24.20;1.00
7325;DHT22;3703;48.016;7.802;2023-08-17T03:02:59;24.20;1.00
7325;DHT22;3703;48.016;7.802;2023-08-17T03:05:46;24.10;1.00
7325;DHT22;3703;48.016;7.802;2023-08-17T03:08:32;24.20;1.00
7325;DHT22;3703;48.016;7.802;2023-08-17T03:11:18;24.20;1.00
7325;DHT22;3703;48.016;7.802;2023-08-17T03:14:05;24.40;1.00
7325;DHT22;3703;48.016;7.802;2023-08-17T03:16:51;24.40;1.00
7325;DHT22;3703;48.016;7.802;2023-08-17T03:19:37;24.40;1.00
7325;DHT22;3703;48.016;7.802;2023-08-17T03:22:24;24.50;1.00
7325;DHT22;3703;48.016;7.802;2023-08-17T03:25:10;24.40;1.00
7325;DHT22;3703;48.016;7.802;2023-08-17T03:27:55;24.40;1.00
7325;DHT22;3703;48.016;7.802;2023-08-17T03:30:41;24.30;1.00
7325;DHT22;3703;48.016;7.802;2023-08-17T03:33:27;24.30;1.00
7325;DHT22;3703;48.016;7.802;2023-08-17T03:36:13;24.30;1.00
7325;DHT22;3703;48.016;7.802;2023-08-17T03:39:00;24.40;1.00
7325;DHT22;3703;48.016;7.802;2023-08-17T03:41:46;24.40;1.00
7325;DHT22;3703;48.016;7.802;2023-08-17T03:44:32;24.40;1.00
7325;DHT22;3703;48.016;7.802;2023-08-17T03:47:17;24.40;1.00
7325;DHT22;3703;48.016;7.802;2023-08-17T03:50:04;24.40;1.00
7325;DHT22;3703;48.016;7.802;2023-08-17T03:52:50;24.40;1.00
7325;DHT22;3703;48.016;7.802;2023-08-17T03:55:37;24.40;1.00
7325;DHT22;3703;48.016;7.802;2023-08-17T03:58:23;24.40;1.00
7325;DHT22;3703;48.016;7.802;2023-08-17T04:01:11;24.40;1.00
7325;DHT22;3703;48.016;7.802;2023-08-17T04:03:58;24.50;1.00
7325;DHT22;3703;48.016;7.802;2023-08-17T04:06:44;24.40;1.00
7325;DHT22;3703;48.016;7.802;2023-08-17T04:09:29;24.30;1.00
7325;DHT22;3703;48.016;7.802;2023-08-17T04:12:19;24.40;1.00
7325;DHT22;3703;48.016;7.802;2023-08-17T04:15:05;24.50;1.00
7325;DHT22;3703;48.016;7.802;2023-08-17T04:17:52;24.40;1.00
7325;DHT22;3703;48.016;7.802;2023-08-17T04:20:37;24.30;1.00
7325;DHT22;3703;48.016;7.802;2023-08-17T04:23:23;24.20;1.00
7325;DHT22;3703;48.016;7.802;2023-08-17T04:26:09;24.30;1.00
7325;DHT22;3703;48.016;7.802;2023-08-17T04:28:56;24.20;1.00
7325;DHT22;3703;48.016;7.802;2023-08-17T04:31:42;24.20;1.00
7325;DHT22;3703;48.016;7.802;2023-08-17T04:34:27;24.20;1.00
7325;DHT22;3703;48.016;7.802;2023-08-17T04:37:13;24.10;1.00
7325;DHT22;3703;48.016;7.802;2023-08-17T04:39:59;24.20;1.00
7325;DHT22;3703;48.016;7.802;2023-08-17T04:42:45;24.30;1.00
7325;DHT22;3703;48.016;7.802;2023-08-17T04:45:32;24.20;1.00
7325;DHT22;3703;48.016;7.802;2023-08-17T04:48:18;24.30;1.00
7325;DHT22;3703;48.016;7.802;2023-08-17T04:51:04;24.30;1.00
7325;DHT22;3703;48.016;7.802;2023-08-17T04:53:50;24.10;1.00
7325;DHT22;3703;48.016;7.802;2023-08-17T04:56:36;24.20;1.00
7325;DHT22;3703;48.016;7.802;2023-08-17T04:59:22;24.20;1.00
7325;DHT22;3703;48.016;7.802;2023-08-17T05:02:09;24.30;1.00
7325;DHT22;3703;48.016;7.802;2023-08-17T05:04:55;24.40;1.00
7325;DHT22;3703;48.016;7.802;2023-08-17T05:07:40;24.30;1.00
7325;DHT22;3703;48.016;7.802;2023-08-17T05:10:26;24.00;1.00
7325;DHT22;3703;48.016;7.802;2023-08-17T05:13:12;23.90;1.00
7325;DHT22;3703;48.016;7.802;2023-08-17T05:15:58;23.90;1.00
7325;DHT22;3703;48.016;7.802;2023-08-17T05:18:45;24.00;1.00
7325;DHT22;3703;48.016;7.802;2023-08-17T05:21:30;24.00;1.00
7325;DHT22;3703;48.016;7.802;2023-08-17T05:24:16;24.00;1.00
7325;DHT22;3703;48.016;7.802;2023-08-17T05:27:05;24.30;1.00
7325;DHT22;3703;48.016;7.802;2023-08-17T05:29:51;24.40;1.00
7325;DHT22;3703;48.016;7.802;2023-08-17T05:32:36;24.50;1.00
7325;DHT22;3703;48.016;7.802;2023-08-17T05:35:24;24.40;1.00
7325;DHT22;3703;48.016;7.802;2023-08-17T05:38:11;24.30;1.00
7325;DHT22;3703;48.016;7.802;2023-08-17T05:40:57;24.40;1.00
7325;DHT22;3703;48.016;7.802;2023-08-17T05:43:43;24.60;1.00
7325;DHT22;3703;48.016;7.802;2023-08-17T05:46:29;24.50;1.00
7325;DHT22;3703;48.016;7.802;2023-08-17T05:49:15;24.60;1.00
7325;DHT22;3703;48.016;7.802;2023-08-17T05:52:02;24.60;1.00
7325;DHT22;3703;48.016;7.802;2023-08-17T05:54:48;24.60;1.00
7325;DHT22;3703;48.016;7.802;2023-08-17T05:57:34;24.60;1.00
7325;DHT22;3703;48.016;7.802;2023-08-17T06:00:20;24.60;1.00
7325;DHT22;3703;48.016;7.802;2023-08-17T06:03:06;24.60;1.00
7325;DHT22;3703;48.016;7.802;2023-08-17T06:05:53;24.60;1.00
7325;DHT22;3703;48.016;7.802;2023-08-17T06:08:40;24.70;1.00
7325;DHT22;3703;48.016;7.802;2023-08-17T06:11:26;24.70;1.00
7325;DHT22;3703;48.016;7.802;2023-08-17T06:14:11;25.00;1.00
7325;DHT22;3703;48.016;7.802;2023-08-17T06:16:57;25.00;1.00
7325;DHT22;3703;48.016;7.802;2023-08-17T06:19:43;25.00;1.00
7325;DHT22;3703;48.016;7.802;2023-08-17T06:22:29;25.00;1.00
7325;DHT22;3703;48.016;7.802;2023-08-17T06:25:16;24.90;1.00
7325;DHT22;3703;48.016;7.802;2023-08-17T06:28:02;24.90;1.00
7325;DHT22;3703;48.016;7.802;2023-08-17T06:30:52;24.90;1.00
7325;DHT22;3703;48.016;7.802;2023-08-17T06:33:38;24.90;1.00
7325;DHT22;3703;48.016;7.802;2023-08-17T06:36:24;24.90;1.00
7325;DHT22;3703;48.016;7.802;2023-08-17T06:39:09;24.80;1.00
7325;DHT22;3703;48.016;7.802;2023-08-17T06:41:56;24.00;1.00
7325;DHT22;3703;48.016;7.802;2023-08-17T06:44:42;23.80;1.00
7325;DHT22;3703;48.016;7.802;2023-08-17T06:47:29;24.10;1.00
7325;DHT22;3703;48.016;7.802;2023-08-17T06:50:14;24.40;1.00
7325;DHT22;3703;48.016;7.802;2023-08-17T06:53:01;24.90;1.00
7325;DHT22;3703;48.016;7.802;2023-08-17T06:55:47;25.30;1.00
7325;DHT22;3703;48.016;7.802;2023-08-17T06:58:34;25.60;1.00
7325;DHT22;3703;48.016;7.802;2023-08-17T07:01:20;25.80;1.00
7325;DHT22;3703;48.016;7.802;2023-08-17T07:04:06;25.20;1.00
7325;DHT22;3703;48.016;7.802;2023-08-17T07:06:52;23.80;1.00
7325;DHT22;3703;48.016;7.802;2023-08-17T07:09:38;23.70;1.00
7325;DHT22;3703;48.016;7.802;2023-08-17T07:12:24;24.20;1.00
7325;DHT22;3703;48.016;7.802;2023-08-17T07:15:13;23.70;1.00
7325;DHT22;3703;48.016;7.802;2023-08-17T07:17:59;23.10;1.00
7325;DHT22;3703;48.016;7.802;2023-08-17T07:20:45;23.30;1.00
7325;DHT22;3703;48.016;7.802;2023-08-17T07:23:31;23.80;1.00
7325;DHT22;3703;48.016;7.802;2023-08-17T07:26:16;23.90;1.00
7325;DHT22;3703;48.016;7.802;2023-08-17T07:29:03;23.40;1.00
7325;DHT22;3703;48.016;7.802;2023-08-17T07:31:50;24.00;1.00
7325;DHT22;3703;48.016;7.802;2023-08-17T07:34:36;24.40;1.00
7325;DHT22;3703;48.016;7.802;2023-08-17T07:37:21;24.80;1.00
7325;DHT22;3703;48.016;7.802;2023-08-17T07:40:08;25.00;1.00
7325;DHT22;3703;48.016;7.802;2023-08-17T07:42:54;24.20;1.00
7325;DHT22;3703;48.016;7.802;2023-08-17T07:45:40;24.70;1.00
7325;DHT22;3703;48.016;7.802;2023-08-17T07:48:27;24.20;1.00
7325;DHT22;3703;48.016;7.802;2023-08-17T07:51:17;23.40;1.00
7325;DHT22;3703;48.016;7.802;2023-08-17T07:54:03;23.40;1.00
7325;DHT22;3703;48.016;7.802;2023-08-17T07:56:49;22.90;14.90
7325;DHT22;3703;48.016;7.802;2023-08-17T07:59:35;23.00;21.70
7325;DHT22;3703;48.016;7.802;2023-08-17T08:02:20;23.40;1.00
7325;DHT22;3703;48.016;7.802;2023-08-17T08:05:08;22.60;32.30
7325;DHT22;3703;48.016;7.802;2023-08-17T08:07:54;21.90;47.60
7325;DHT22;3703;48.016;7.802;2023-08-17T08:10:40;22.10;59.60
7325;DHT22;3703;48.016;7.802;2023-08-17T08:13:26;22.30;51.50
7325;DHT22;3703;48.016;7.802;2023-08-17T08:16:12;22.50;42.30
7325;DHT22;3703;48.016;7.802;2023-08-17T08:18:58;22.80;30.40
7325;DHT22;3703;48.016;7.802;2023-08-17T08:21:45;22.70;30.50
7325;DHT22;3703;48.016;7.802;2023-08-17T08:24:31;23.30;27.20
7325;DHT22;3703;48.016;7.802;2023-08-17T08:27:19;23.00;17.30
7325;DHT22;3703;48.016;7.802;2023-08-17T08:30:06;22.80;26.50
7325;DHT22;3703;48.016;7.802;2023-08-17T08:32:52;22.60;36.70
7325;DHT22;3703;48.016;7.802;2023-08-17T08:35:40;23.10;20.20
7325;DHT22;3703;48.016;7.802;2023-08-17T08:38:27;23.40;8.00
7325;DHT22;3703;48.016;7.802;2023-08-17T08:41:13;23.40;1.00
7325;DHT22;3703;48.016;7.802;2023-08-17T08:43:59;23.30;7.70
7325;DHT22;3703;48.016;7.802;2023-08-17T08:46:45;23.80;1.00
7325;DHT22;3703;48.016;7.802;2023-08-17T08:49:33;23.80;1.00
7325;DHT22;3703;48.016;7.802;2023-08-17T08:52:23;23.80;1.00
7325;DHT22;3703;48.016;7.802;2023-08-17T08:55:18;23.90;1.00
7325;DHT22;3703;48.016;7.802;2023-08-17T08:58:05;23.90;1.00
7325;DHT22;3703;48.016;7.802;2023-08-17T09:00:52;24.00;1.00
7325;DHT22;3703;48.016;7.802;2023-08-17T09:03:38;23.80;1.00
7325;DHT22;3703;48.016;7.802;2023-08-17T09:06:25;23.60;1.00
7325;DHT22;3703;48.016;7.802;2023-08-17T09:09:15;23.10;26.80
7325;DHT22;3703;48.016;7.802;2023-08-17T09:12:03;23.30;21.40
7325;DHT22;3703;48.016;7.802;2023-08-17T09:14:49;23.40;18.70
7325;DHT22;3703;48.016;7.802;2023-08-17T09:17:35;23.50;16.30
7325;DHT22;3703;48.016;7.802;2023-08-17T09:20:38;23.40;17.10
7325;DHT22;3703;48.016;7.802;2023-08-17T09:23:25;24.10;4.20
7325;DHT22;3703;48.016;7.802;2023-08-17T09:26:11;24.50;1.00
7325;DHT22;3703;48.016;7.802;2023-08-17T09:28:59;24.50;1.00
7325;DHT22;3703;48.016;7.802;2023-08-17T09:31:46;24.70;1.00
7325;DHT22;3703;48.016;7.802;2023-08-17T09:34:32;24.10;1.00
7325;DHT22;3703;48.016;7.802;2023-08-17T09:37:18;24.20;1.00
7325;DHT22;3703;48.016;7.802;2023-08-17T09:40:05;23.70;15.60
7325;DHT22;3703;48.016;7.802;2023-08-17T09:42:53;24.00;10.00
7325;DHT22;3703;48.016;7.802;2023-08-17T09:45:42;24.90;1.00
7325;DHT22;3703;48.016;7.802;2023-08-17T09:48:30;24.50;1.00
7325;DHT22;3703;48.016;7.802;2023-08-17T09:51:16;24.40;1.00
7325;DHT22;3703;48.016;7.802;2023-08-17T09:54:02;25.20;1.00
7325;DHT22;3703;48.016;7.802;2023-08-17T09:56:50;25.30;1.00
7325;DHT22;3703;48.016;7.802;2023-08-17T09:59:36;25.90;1.00
7325;DHT22;3703;48.016;7.802;2023-08-17T10:02:24;26.40;1.00
7325;DHT22;3703;48.016;7.802;2023-08-17T10:05:11;26.80;1.00
7325;DHT22;3703;48.016;7.802;2023-08-17T10:07:59;26.40;1.00
7325;DHT22;3703;48.016;7.802;2023-08-17T10:10:46;27.30;1.00
7325;DHT22;3703;48.016;7.802;2023-08-17T10:13:35;27.80;99.90
7325;DHT22;3703;48.016;7.802;2023-08-17T10:16:28;27.40;99.90
7325;DHT22;3703;48.016;7.802;2023-08-17T10:19:21;27.50;99.90
7325;DHT22;3703;48.016;7.802;2023-08-17T10:25:02;28.20;99.90
7325;DHT22;3703;48.016;7.802;2023-08-17T10:27:50;27.90;99.90
7325;DHT22;3703;48.016;7.802;2023-08-17T10:30:37;28.60;99.90
7325;DHT22;3703;48.016;7.802;2023-08-17T10:33:25;29.10;99.90
7325;DHT22;3703;48.016;7.802;2023-08-17T10:36:12;29.80;99.90
7325;DHT22;3703;48.016;7.802;2023-08-17T10:39:17;30.10;99.90
7325;DHT22;3703;48.016;7.802;2023-08-17T10:42:03;30.20;99.90
7325;DHT22;3703;48.016;7.802;2023-08-17T10:44:49;30.00;99.90
7325;DHT22;3703;48.016;7.802;2023-08-17T10:47:35;29.80;99.90
7325;DHT22;3703;48.016;7.802;2023-08-17T10:50:22;29.70;99.90
7325;DHT22;3703;48.016;7.802;2023-08-17T10:53:11;29.90;99.90
7325;DHT22;3703;48.016;7.802;2023-08-17T10:56:00;30.20;99.90
7325;DHT22;3703;48.016;7.802;2023-08-17T10:58:45;30.40;99.90
7325;DHT22;3703;48.016;7.802;2023-08-17T11:01:33;30.50;99.90
7325;DHT22;3703;48.016;7.802;2023-08-17T11:04:20;30.40;99.90
7325;DHT22;3703;48.016;7.802;2023-08-17T11:07:13;29.90;99.90
7325;DHT22;3703;48.016;7.802;2023-08-17T11:10:11;30.50;99.90
7325;DHT22;3703;48.016;7.802;2023-08-17T11:12:58;31.20;99.90
7325;DHT22;3703;48.016;7.802;2023-08-17T11:15:45;31.50;99.90
7325;DHT22;3703;48.016;7.802;2023-08-17T11:18:33;31.20;99.90
7325;DHT22;3703;48.016;7.802;2023-08-17T11:21:19;31.70;99.90
7325;DHT22;3703;48.016;7.802;2023-08-17T11:24:06;32.30;99.90
7325;DHT22;3703;48.016;7.802;2023-08-17T11:26:54;32.10;99.90
7325;DHT22;3703;48.016;7.802;2023-08-17T11:29:41;31.00;99.90
7325;DHT22;3703;48.016;7.802;2023-08-17T11:32:26;30.90;99.90
7325;DHT22;3703;48.016;7.802;2023-08-17T11:35:12;31.00;99.90
7325;DHT22;3703;48.016;7.802;2023-08-17T11:37:58;31.20;99.90
7325;DHT22;3703;48.016;7.802;2023-08-17T11:40:44;31.50;99.90
7325;DHT22;3703;48.016;7.802;2023-08-17T11:43:32;30.90;99.90
7325;DHT22;3703;48.016;7.802;2023-08-17T11:46:18;31.00;99.90
7325;DHT22;3703;48.016;7.802;2023-08-17T11:49:05;32.10;99.90
7325;DHT22;3703;48.016;7.802;2023-08-17T11:51:51;33.30;99.90
7325;DHT22;3703;48.016;7.802;2023-08-17T11:54:40;33.90;99.90
7325;DHT22;3703;48.016;7.802;2023-08-17T11:57:26;33.40;99.90
7325;DHT22;3703;48.016;7.802;2023-08-17T12:00:19;32.60;99.90
7325;DHT22;3703;48.016;7.802;2023-08-17T12:03:06;33.40;99.90
7325;DHT22;3703;48.016;7.802;2023-08-17T12:05:52;34.40;99.90
7325;DHT22;3703;48.016;7.802;2023-08-17T12:08:38;35.40;99.90
7325;DHT22;3703;48.016;7.802;2023-08-17T12:11:29;35.40;99.90
7325;DHT22;3703;48.016;7.802;2023-08-17T12:14:15;35.30;99.90
7325;DHT22;3703;48.016;7.802;2023-08-17T12:17:02;35.30;99.90
7325;DHT22;3703;48.016;7.802;2023-08-17T12:19:49;34.60;99.90
7325;DHT22;3703;48.016;7.802;2023-08-17T12:22:36;34.00;99.90
7325;DHT22;3703;48.016;7.802;2023-08-17T12:25:25;35.10;99.90
7325;DHT22;3703;48.016;7.802;2023-08-17T12:28:12;35.60;99.90
7325;DHT22;3703;48.016;7.802;2023-08-17T12:31:00;34.90;99.90
7325;DHT22;3703;48.016;7.802;2023-08-17T12:33:48;34.10;99.90
7325;DHT22;3703;48.016;7.802;2023-08-17T12:36:34;34.30;99.90
7325;DHT22;3703;48.016;7.802;2023-08-17T12:39:21;33.70;99.90
7325;DHT22;3703;48.016;7.802;2023-08-17T12:42:07;34.40;99.90
7325;DHT22;3703;48.016;7.802;2023-08-17T12:44:53;34.80;99.90
7325;DHT22;3703;48.016;7.802;2023-08-17T12:47:39;35.20;99.90
7325;DHT22;3703;48.016;7.802;2023-08-17T12:50:26;34.90;99.90
7325;DHT22;3703;48.016;7.802;2023-08-17T12:53:12;34.60;99.90
7325;DHT22;3703;48.016;7.802;2023-08-17T12:55:58;34.70;99.90
7325;DHT22;3703;48.016;7.802;2023-08-17T12:58:44;35.30;99.90
7325;DHT22;3703;48.016;7.802;2023-08-17T13:01:30;35.40;99.90
7325;DHT22;3703;48.016;7.802;2023-08-17T13:04:16;35.50;99.90
7325;DHT22;3703;48.016;7.802;2023-08-17T13:07:04;35.60;99.90
7325;DHT22;3703;48.016;7.802;2023-08-17T13:09:50;35.40;99.90
7325;DHT22;3703;48.016;7.802;2023-08-17T13:12:35;35.50;99.90
7325;DHT22;3703;48.016;7.802;2023-08-17T13:15:21;35.70;99.90
7325;DHT22;3703;48.016;7.802;2023-08-17T13:18:07;36.20;99.90
7325;DHT22;3703;48.016;7.802;2023-08-17T13:20:53;37.20;99.90
7325;DHT22;3703;48.016;7.802;2023-08-17T13:23:40;38.00;99.90
7325;DHT22;3703;48.016;7.802;2023-08-17T13:26:26;37.90;99.80
7325;DHT22;3703;48.016;7.802;2023-08-17T13:29:12;37.20;99.90
7325;DHT22;3703;48.016;7.802;2023-08-17T13:31:58;37.50;99.90
7325;DHT22;3703;48.016;7.802;2023-08-17T13:34:44;37.80;99.90
7325;DHT22;3703;48.016;7.802;2023-08-17T13:37:30;39.30;99.00
7325;DHT22;3703;48.016;7.802;2023-08-17T13:40:17;39.60;97.10
7325;DHT22;3703;48.016;7.802;2023-08-17T13:43:03;39.50;95.90
7325;DHT22;3703;48.016;7.802;2023-08-17T13:45:52;38.70;96.20
7325;DHT22;3703;48.016;7.802;2023-08-17T13:48:38;39.10;95.70
7325;DHT22;3703;48.016;7.802;2023-08-17T13:51:24;37.90;95.40
7325;DHT22;3703;48.016;7.802;2023-08-17T13:54:10;38.50;95.30
7325;DHT22;3703;48.016;7.802;2023-08-17T13:56:57;38.30;95.80
7325;DHT22;3703;48.016;7.802;2023-08-17T13:59:43;37.10;96.10
7325;DHT22;3703;48.016;7.802;2023-08-17T14:02:30;37.10;97.40
7325;DHT22;3703;48.016;7.802;2023-08-17T14:05:16;37.40;96.20
7325;DHT22;3703;48.016;7.802;2023-08-17T14:08:02;37.10;95.00
7325;DHT22;3703;48.016;7.802;2023-08-17T14:10:49;36.50;94.90
7325;DHT22;3703;48.016;7.802;2023-08-17T14:13:36;35.80;95.10
7325;DHT22;3703;48.016;7.802;2023-08-17T14:16:23;34.70;94.30
7325;DHT22;3703;48.016;7.802;2023-08-17T14:19:09;34.80;96.40
7325;DHT22;3703;48.016;7.802;2023-08-17T14:21:55;34.20;94.00
7325;DHT22;3703;48.016;7.802;2023-08-17T14:24:41;33.90;96.10
7325;DHT22;3703;48.016;7.802;2023-08-17T14:27:27;34.20;97.90
7325;DHT22;3703;48.016;7.802;2023-08-17T14:30:14;33.90;99.10
7325;DHT22;3703;48.016;7.802;2023-08-17T14:32:59;34.00;99.90
7325;DHT22;3703;48.016;7.802;2023-08-17T14:35:45;33.90;99.90
7325;DHT22;3703;48.016;7.802;2023-08-17T14:38:31;34.10;99.90
7325;DHT22;3703;48.016;7.802;2023-08-17T14:41:16;34.20;99.90
7325;DHT22;3703;48.016;7.802;2023-08-17T14:44:02;34.30;99.90
7325;DHT22;3703;48.016;7.802;2023-08-17T14:46:50;34.30;99.90
7325;DHT22;3703;48.016;7.802;2023-08-17T14:49:36;34.40;99.90
7325;DHT22;3703;48.016;7.802;2023-08-17T14:52:22;34.80;99.90
7325;DHT22;3703;48.016;7.802;2023-08-17T14:55:10;35.00;99.90
7325;DHT22;3703;48.016;7.802;2023-08-17T14:57:57;34.90;99.90
7325;DHT22;3703;48.016;7.802;2023-08-17T15:00:44;35.00;99.90
7325;DHT22;3703;48.016;7.802;2023-08-17T15:03:31;35.10;99.90
7325;DHT22;3703;48.016;7.802;2023-08-17T15:06:17;35.00;99.90
7325;DHT22;3703;48.016;7.802;2023-08-17T15:09:07;34.50;99.90
7325;DHT22;3703;48.016;7.802;2023-08-17T15:11:54;34.30;99.90
7325;DHT22;3703;48.016;7.802;2023-08-17T15:14:40;33.80;99.90
7325;DHT22;3703;48.016;7.802;2023-08-17T15:17:26;33.60;99.90
7325;DHT22;3703;48.016;7.802;2023-08-17T15:20:13;33.50;99.90
7325;DHT22;3703;48.016;7.802;2023-08-17T15:22:59;33.20;99.90
7325;DHT22;3703;48.016;7.802;2023-08-17T15:25:45;33.10;99.90
7325;DHT22;3703;48.016;7.802;2023-08-17T15:28:31;33.00;99.90
7325;DHT22;3703;48.016;7.802;2023-08-17T15:31:17;32.70;99.90
7325;DHT22;3703;48.016;7.802;2023-08-17T15:34:03;32.80;99.90
7325;DHT22;3703;48.016;7.802;2023-08-17T15:36:51;32.60;99.90
7325;DHT22;3703;48.016;7.802;2023-08-17T15:39:36;32.60;99.90
7325;DHT22;3703;48.016;7.802;2023-08-17T15:42:22;32.40;99.90
7325;DHT22;3703;48.016;7.802;2023-08-17T15:45:09;32.20;99.90
7325;DHT22;3703;48.016;7.802;2023-08-17T15:47:55;32.30;99.90
7325;DHT22;3703;48.016;7.802;2023-08-17T15:50:41;32.20;99.90
7325;DHT22;3703;48.016;7.802;2023-08-17T15:53:29;32.20;99.90
7325;DHT22;3703;48.016;7.802;2023-08-17T15:56:15;32.20;99.90
7325;DHT22;3703;48.016;7.802;2023-08-17T15:59:01;32.20;99.90
7325;DHT22;3703;48.016;7.802;2023-08-17T16:01:47;32.20;99.90
7325;DHT22;3703;48.016;7.802;2023-08-17T16:04:32;32.20;99.90
7325;DHT22;3703;48.016;7.802;2023-08-17T16:07:18;32.20;99.90
7325;DHT22;3703;48.016;7.802;2023-08-17T16:10:06;32.20;99.90
7325;DHT22;3703;48.016;7.802;2023-08-17T16:12:53;32.10;99.90
7325;DHT22;3703;48.016;7.802;2023-08-17T16:15:38;32.20;99.90
7325;DHT22;3703;48.016;7.802;2023-08-17T16:18:24;32.40;99.90
7325;DHT22;3703;48.016;7.802;2023-08-17T16:21:10;32.40;99.90
7325;DHT22;3703;48.016;7.802;2023-08-17T16:23:56;32.60;99.90
7325;DHT22;3703;48.016;7.802;2023-08-17T16:26:43;32.90;99.90
7325;DHT22;3703;48.016;7.802;2023-08-17T16:29:29;32.80;99.90
7325;DHT22;3703;48.016;7.802;2023-08-17T16:32:15;33.00;99.90
7325;DHT22;3703;48.016;7.802;2023-08-17T16:35:01;33.00;99.90
7325;DHT22;3703;48.016;7.802;2023-08-17T16:37:47;33.00;99.90
7325;DHT22;3703;48.016;7.802;2023-08-17T16:40:33;32.90;99.90
7325;DHT22;3703;48.016;7.802;2023-08-17T16:43:20;32.80;99.90
7325;DHT22;3703;48.016;7.802;2023-08-17T16:46:06;32.70;99.90
7325;DHT22;3703;48.016;7.802;2023-08-17T16:48:52;32.60;99.90
7325;DHT22;3703;48.016;7.802;2023-08-17T16:51:39;32.40;99.90
7325;DHT22;3703;48.016;7.802;2023-08-17T16:54:25;32.40;99.90
7325;DHT22;3703;48.016;7.802;2023-08-17T16:57:10;32.30;99.90
7325;DHT22;3703;48.016;7.802;2023-08-17T16:59:58;32.30;99.90
7325;DHT22;3703;48.016;7.802;2023-08-17T17:02:44;32.30;99.90
7325;DHT22;3703;48.016;7.802;2023-08-17T17:05:30;32.10;99.90
7325;DHT22;3703;48.016;7.802;2023-08-17T17:08:15;32.10;99.90
7325;DHT22;3703;48.016;7.802;2023-08-17T17:11:01;32.00;99.90
7325;DHT22;3703;48.016;7.802;2023-08-17T17:13:48;31.80;99.90
7325;DHT22;3703;48.016;7.802;2023-08-17T17:16:35;31.80;99.90
7325;DHT22;3703;48.016;7.802;2023-08-17T17:19:21;31.70;99.90
7325;DHT22;3703;48.016;7.802;2023-08-17T17:22:07;31.60;99.90
7325;DHT22;3703;48.016;7.802;2023-08-17T17:24:55;31.60;99.90
7325;DHT22;3703;48.016;7.802;2023-08-17T17:27:41;31.60;99.90
7325;DHT22;3703;48.016;7.802;2023-08-17T17:30:27;31.60;99.90
7325;DHT22;3703;48.016;7.802;2023-08-17T17:33:14;31.40;99.90
7325;DHT22;3703;48.016;7.802;2023-08-17T17:36:00;31.30;99.90
7325;DHT22;3703;48.016;7.802;2023-08-17T17:38:46;31.40;99.90
7325;DHT22;3703;48.016;7.802;2023-08-17T17:41:31;31.40;99.90
7325;DHT22;3703;48.016;7.802;2023-08-17T17:44:17;31.40;99.90
7325;DHT22;3703;48.016;7.802;2023-08-17T17:47:03;31.40;99.90
7325;DHT22;3703;48.016;7.802;2023-08-17T17:49:51;31.30;99.90
7325;DHT22;3703;48.016;7.802;2023-08-17T17:52:37;31.30;99.90
7325;DHT22;3703;48.016;7.802;2023-08-17T17:55:23;31.40;99.90
7325;DHT22;3703;48.016;7.802;2023-08-17T17:58:09;31.30;99.90
7325;DHT22;3703;48.016;7.802;2023-08-17T18:00:55;31.30;99.90
7325;DHT22;3703;48.016;7.802;2023-08-17T18:03:41;31.20;99.90
7325;DHT22;3703;48.016;7.802;2023-08-17T18:06:28;30.80;99.90
7325;DHT22;3703;48.016;7.802;2023-08-17T18:09:14;30.90;99.90
7325;DHT22;3703;48.016;7.802;2023-08-17T18:12:00;30.80;99.90
7325;DHT22;3703;48.016;7.802;2023-08-17T18:14:47;30.70;99.90
7325;DHT22;3703;48.016;7.802;2023-08-17T18:17:33;30.50;99.90
7325;DHT22;3703;48.016;7.802;2023-08-17T18:20:19;30.50;99.90